sensor_id;sensor_type;location;lat;lon;timestamp;P1;durP1;ratioP1;P2;durP2;ratioP2
25247;SDS011;13191;47.472;11.214;2023-08-30T00:02:17;0.20;;;0.20;;
25247;SDS011;13191;47.472;11.214;2023-08-30T00:04:43;0.30;;;0.20;;
25247;SDS011;13191;47.472;11.214;2023-08-30T00:07:08;0.60;;;0.20;;
25247;SDS011;13191;47.472;11.214;2023-08-30T00:09:35;0.32;;;0.30;;
25247;SDS011;13191;47.472;11.214;2023-08-30T00:12:01;0.75;;;0.20;;
25247;SDS011;13191;47.472;11.214;2023-08-30T00:14:27;0.40;;;0.30;;
25247;SDS011;13191;47.472;11.214;2023-08-30T00:16:53;0.17;;;0.17;;
25247;SDS011;13191;47.472;11.214;2023-08-30T00:19:19;0.22;;;0.20;;
25247;SDS011;13191;47.472;11.214;2023-08-30T00:21:44;0.20;;;0.20;;
25247;SDS011;13191;47.472;11.214;2023-08-30T00:24:10;0.22;;;0.20;;
25247;SDS011;13191;47.472;11.214;2023-08-30T00:26:36;2.15;;;0.40;;
25247;SDS011;13191;47.472;11.214;2023-08-30T00:29:01;0.52;;;0.20;;
25247;SDS011;13191;47.472;11.214;2023-08-30T00:31:27;0.30;;;0.20;;
25247;SDS011;13191;47.472;11.214;2023-08-30T00:33:52;0.20;;;0.20;;
25247;SDS011;13191;47.472;11.214;2023-08-30T00:36:18;0.22;;;0.20;;
25247;SDS011;13191;47.472;11.214;2023-08-30T00:38:43;2.00;;;0.20;;
25247;SDS011;13191;47.472;11.214;2023-08-30T00:41:09;0.20;;;0.20;;
25247;SDS011;13191;47.472;11.214;2023-08-30T00:43:35;0.65;;;0.43;;
25247;SDS011;13191;47.472;11.214;2023-08-30T00:46:00;0.10;;;0.10;;
25247;SDS011;13191;47.472;11.214;2023-08-30T00:48:26;0.30;;;0.22;;
25247;SDS011;13191;47.472;11.214;2023-08-30T00:50:52;0.20;;;0.20;;
25247;SDS011;13191;47.472;11.214;2023-08-30T00:53:18;1.33;;;0.40;;
25247;SDS011;13191;47.472;11.214;2023-08-30T00:55:43;0.20;;;0.20;;
25247;SDS011;13191;47.472;11.214;2023-08-30T00:58:09;0.30;;;0.30;;
25247;SDS011;13191;47.472;11.214;2023-08-30T01:00:36;0.13;;;0.13;;
25247;SDS011;13191;47.472;11.214;2023-08-30T01:03:01;1.15;;;0.20;;
25247;SDS011;13191;47.472;11.214;2023-08-30T01:05:30;0.20;;;0.20;;
25247;SDS011;13191;47.472;11.214;2023-08-30T01:07:55;0.13;;;0.13;;
25247;SDS011;13191;47.472;11.214;2023-08-30T01:10:22;0.20;;;0.20;;
25247;SDS011;13191;47.472;11.214;2023-08-30T01:13:09;0.28;;;0.22;;
25247;SDS011;13191;47.472;11.214;2023-08-30T01:15:38;0.52;;;0.20;;
25247;SDS011;13191;47.472;11.214;2023-08-30T01:18:05;0.25;;;0.20;;
25247;SDS011;13191;47.472;11.214;2023-08-30T01:20:33;0.38;;;0.30;;
25247;SDS011;13191;47.472;11.214;2023-08-30T01:23:06;0.20;;;0.20;;
25247;SDS011;13191;47.472;11.214;2023-08-30T01:28:29;1.88;;;0.50;;
25247;SDS011;13191;47.472;11.214;2023-08-30T01:30:57;0.40;;;0.20;;
25247;SDS011;13191;47.472;11.214;2023-08-30T01:33:24;0.40;;;0.30;;
25247;SDS011;13191;47.472;11.214;2023-08-30T01:35:52;0.75;;;0.32;;
25247;SDS011;13191;47.472;11.214;2023-08-30T01:38:20;0.28;;;0.28;;
25247;SDS011;13191;47.472;11.214;2023-08-30T01:40:46;0.30;;;0.28;;
25247;SDS011;13191;47.472;11.214;2023-08-30T01:43:13;0.35;;;0.30;;
25247;SDS011;13191;47.472;11.214;2023-08-30T01:45:40;0.32;;;0.30;;
25247;SDS011;13191;47.472;11.214;2023-08-30T01:48:10;0.38;;;0.22;;
25247;SDS011;13191;47.472;11.214;2023-08-30T01:50:41;0.45;;;0.35;;
25247;SDS011;13191;47.472;11.214;2023-08-30T01:53:08;0.25;;;0.25;;
25247;SDS011;13191;47.472;11.214;2023-08-30T01:55:36;0.52;;;0.30;;
25247;SDS011;13191;47.472;11.214;2023-08-30T01:58:03;0.65;;;0.40;;
25247;SDS011;13191;47.472;11.214;2023-08-30T02:00:29;0.93;;;0.50;;
25247;SDS011;13191;47.472;11.214;2023-08-30T02:02:55;0.63;;;0.40;;
25247;SDS011;13191;47.472;11.214;2023-08-30T02:05:21;0.40;;;0.30;;
25247;SDS011;13191;47.472;11.214;2023-08-30T02:10:28;0.30;;;0.30;;
25247;SDS011;13191;47.472;11.214;2023-08-30T02:12:59;0.30;;;0.30;;
25247;SDS011;13191;47.472;11.214;2023-08-30T02:15:25;0.20;;;0.20;;
25247;SDS011;13191;47.472;11.214;2023-08-30T02:17:52;0.52;;;0.30;;
25247;SDS011;13191;47.472;11.214;2023-08-30T02:20:18;0.20;;;0.20;;
25247;SDS011;13191;47.472;11.214;2023-08-30T02:22:44;0.38;;;0.28;;
25247;SDS011;13191;47.472;11.214;2023-08-30T02:25:10;0.30;;;0.20;;
25247;SDS011;13191;47.472;11.214;2023-08-30T02:27:35;0.35;;;0.30;;
25247;SDS011;13191;47.472;11.214;2023-08-30T02:30:02;0.82;;;0.43;;
25247;SDS011;13191;47.472;11.214;2023-08-30T02:32:28;0.50;;;0.50;;
25247;SDS011;13191;47.472;11.214;2023-08-30T02:34:53;0.60;;;0.22;;
25247;SDS011;13191;47.472;11.214;2023-08-30T02:37:20;1.15;;;0.30;;
25247;SDS011;13191;47.472;11.214;2023-08-30T02:39:46;0.28;;;0.28;;
25247;SDS011;13191;47.472;11.214;2023-08-30T02:42:12;0.60;;;0.30;;
25247;SDS011;13191;47.472;11.214;2023-08-30T02:44:37;0.77;;;0.30;;
25247;SDS011;13191;47.472;11.214;2023-08-30T02:47:03;0.20;;;0.20;;
25247;SDS011;13191;47.472;11.214;2023-08-30T02:49:29;0.70;;;0.28;;
25247;SDS011;13191;47.472;11.214;2023-08-30T02:51:54;0.52;;;0.40;;
25247;SDS011;13191;47.472;11.214;2023-08-30T02:54:20;0.52;;;0.30;;
25247;SDS011;13191;47.472;11.214;2023-08-30T02:56:47;0.40;;;0.40;;
25247;SDS011;13191;47.472;11.214;2023-08-30T02:59:13;0.30;;;0.30;;
25247;SDS011;13191;47.472;11.214;2023-08-30T03:01:38;1.17;;;0.43;;
25247;SDS011;13191;47.472;11.214;2023-08-30T03:04:04;0.22;;;0.20;;
25247;SDS011;13191;47.472;11.214;2023-08-30T03:06:32;1.05;;;0.50;;
25247;SDS011;13191;47.472;11.214;2023-08-30T03:08:58;0.80;;;0.50;;
25247;SDS011;13191;47.472;11.214;2023-08-30T03:11:23;0.73;;;0.40;;
25247;SDS011;13191;47.472;11.214;2023-08-30T03:13:49;0.30;;;0.20;;
25247;SDS011;13191;47.472;11.214;2023-08-30T03:16:15;1.25;;;0.52;;
25247;SDS011;13191;47.472;11.214;2023-08-30T03:18:42;0.40;;;0.40;;
25247;SDS011;13191;47.472;11.214;2023-08-30T03:21:08;1.55;;;0.70;;
25247;SDS011;13191;47.472;11.214;2023-08-30T03:23:34;1.23;;;0.60;;
25247;SDS011;13191;47.472;11.214;2023-08-30T03:26:07;1.00;;;0.57;;
25247;SDS011;13191;47.472;11.214;2023-08-30T03:28:39;0.95;;;0.50;;
25247;SDS011;13191;47.472;11.214;2023-08-30T03:33:41;0.65;;;0.40;;
25247;SDS011;13191;47.472;11.214;2023-08-30T03:36:07;0.68;;;0.40;;
25247;SDS011;13191;47.472;11.214;2023-08-30T03:38:37;1.73;;;0.50;;
25247;SDS011;13191;47.472;11.214;2023-08-30T03:41:03;0.88;;;0.45;;
25247;SDS011;13191;47.472;11.214;2023-08-30T03:43:30;0.63;;;0.40;;
25247;SDS011;13191;47.472;11.214;2023-08-30T03:45:56;1.00;;;0.55;;
25247;SDS011;13191;47.472;11.214;2023-08-30T03:48:22;0.70;;;0.40;;
25247;SDS011;13191;47.472;11.214;2023-08-30T03:50:48;0.95;;;0.40;;
25247;SDS011;13191;47.472;11.214;2023-08-30T03:53:14;0.80;;;0.50;;
25247;SDS011;13191;47.472;11.214;2023-08-30T03:55:40;1.25;;;0.60;;
25247;SDS011;13191;47.472;11.214;2023-08-30T03:58:06;1.38;;;0.40;;
25247;SDS011;13191;47.472;11.214;2023-08-30T04:00:31;0.60;;;0.35;;
25247;SDS011;13191;47.472;11.214;2023-08-30T04:02:57;1.50;;;0.63;;
25247;SDS011;13191;47.472;11.214;2023-08-30T04:05:23;0.85;;;0.50;;
25247;SDS011;13191;47.472;11.214;2023-08-30T04:07:48;1.27;;;0.45;;
25247;SDS011;13191;47.472;11.214;2023-08-30T04:10:14;0.43;;;0.32;;
25247;SDS011;13191;47.472;11.214;2023-08-30T04:12:39;0.95;;;0.52;;
25247;SDS011;13191;47.472;11.214;2023-08-30T04:15:05;4.30;;;0.50;;
25247;SDS011;13191;47.472;11.214;2023-08-30T04:17:31;1.08;;;0.50;;
25247;SDS011;13191;47.472;11.214;2023-08-30T04:19:56;1.33;;;0.60;;
25247;SDS011;13191;47.472;11.214;2023-08-30T04:22:22;0.82;;;0.32;;
25247;SDS011;13191;47.472;11.214;2023-08-30T04:24:48;0.77;;;0.45;;
25247;SDS011;13191;47.472;11.214;2023-08-30T04:27:13;3.03;;;0.52;;
25247;SDS011;13191;47.472;11.214;2023-08-30T04:29:39;1.00;;;0.45;;
25247;SDS011;13191;47.472;11.214;2023-08-30T04:32:05;0.77;;;0.45;;
25247;SDS011;13191;47.472;11.214;2023-08-30T04:34:31;0.50;;;0.35;;
25247;SDS011;13191;47.472;11.214;2023-08-30T04:36:57;0.85;;;0.32;;
25247;SDS011;13191;47.472;11.214;2023-08-30T04:39:23;0.65;;;0.40;;
25247;SDS011;13191;47.472;11.214;2023-08-30T04:41:48;2.30;;;0.30;;
25247;SDS011;13191;47.472;11.214;2023-08-30T04:44:14;0.75;;;0.45;;
25247;SDS011;13191;47.472;11.214;2023-08-30T04:46:39;0.95;;;0.50;;
25247;SDS011;13191;47.472;11.214;2023-08-30T04:49:05;0.73;;;0.47;;
25247;SDS011;13191;47.472;11.214;2023-08-30T04:51:30;1.20;;;0.70;;
25247;SDS011;13191;47.472;11.214;2023-08-30T04:53:56;0.82;;;0.50;;
25247;SDS011;13191;47.472;11.214;2023-08-30T04:56:22;0.93;;;0.43;;
25247;SDS011;13191;47.472;11.214;2023-08-30T04:58:48;0.95;;;0.60;;
25247;SDS011;13191;47.472;11.214;2023-08-30T05:01:15;1.20;;;0.55;;
25247;SDS011;13191;47.472;11.214;2023-08-30T05:03:41;0.70;;;0.50;;
25247;SDS011;13191;47.472;11.214;2023-08-30T05:06:07;1.17;;;0.50;;
25247;SDS011;13191;47.472;11.214;2023-08-30T05:08:32;1.27;;;0.47;;
25247;SDS011;13191;47.472;11.214;2023-08-30T05:10:58;0.68;;;0.40;;
25247;SDS011;13191;47.472;11.214;2023-08-30T05:13:24;0.65;;;0.30;;
25247;SDS011;13191;47.472;11.214;2023-08-30T05:15:49;2.13;;;0.30;;
25247;SDS011;13191;47.472;11.214;2023-08-30T05:18:15;1.98;;;0.57;;
25247;SDS011;13191;47.472;11.214;2023-08-30T05:20:40;0.93;;;0.60;;
25247;SDS011;13191;47.472;11.214;2023-08-30T05:23:06;0.63;;;0.30;;
25247;SDS011;13191;47.472;11.214;2023-08-30T05:25:32;0.50;;;0.40;;
25247;SDS011;13191;47.472;11.214;2023-08-30T05:27:58;0.65;;;0.40;;
25247;SDS011;13191;47.472;11.214;2023-08-30T05:30:23;1.95;;;0.50;;
25247;SDS011;13191;47.472;11.214;2023-08-30T05:32:49;0.90;;;0.43;;
25247;SDS011;13191;47.472;11.214;2023-08-30T05:35:14;1.05;;;0.50;;
25247;SDS011;13191;47.472;11.214;2023-08-30T05:37:40;0.60;;;0.38;;
25247;SDS011;13191;47.472;11.214;2023-08-30T05:40:05;0.57;;;0.30;;
25247;SDS011;13191;47.472;11.214;2023-08-30T05:42:32;1.13;;;0.50;;
25247;SDS011;13191;47.472;11.214;2023-08-30T05:44:58;1.00;;;0.43;;
25247;SDS011;13191;47.472;11.214;2023-08-30T05:47:24;1.45;;;0.68;;
25247;SDS011;13191;47.472;11.214;2023-08-30T05:49:49;3.72;;;0.60;;
25247;SDS011;13191;47.472;11.214;2023-08-30T05:52:15;0.75;;;0.40;;
25247;SDS011;13191;47.472;11.214;2023-08-30T05:54:43;2.78;;;0.60;;
25247;SDS011;13191;47.472;11.214;2023-08-30T05:57:09;0.47;;;0.30;;
25247;SDS011;13191;47.472;11.214;2023-08-30T05:59:35;0.40;;;0.32;;
25247;SDS011;13191;47.472;11.214;2023-08-30T06:02:01;1.17;;;0.40;;
25247;SDS011;13191;47.472;11.214;2023-08-30T06:04:26;0.85;;;0.45;;
25247;SDS011;13191;47.472;11.214;2023-08-30T06:06:52;1.23;;;1.00;;
25247;SDS011;13191;47.472;11.214;2023-08-30T06:09:18;0.98;;;0.43;;
25247;SDS011;13191;47.472;11.214;2023-08-30T06:11:43;0.80;;;0.57;;
25247;SDS011;13191;47.472;11.214;2023-08-30T06:14:09;0.90;;;0.52;;
25247;SDS011;13191;47.472;11.214;2023-08-30T06:16:34;1.08;;;0.60;;
25247;SDS011;13191;47.472;11.214;2023-08-30T06:19:00;1.55;;;0.60;;
25247;SDS011;13191;47.472;11.214;2023-08-30T06:21:26;2.05;;;0.50;;
25247;SDS011;13191;47.472;11.214;2023-08-30T06:23:52;2.47;;;1.05;;
25247;SDS011;13191;47.472;11.214;2023-08-30T06:26:18;1.08;;;0.30;;
25247;SDS011;13191;47.472;11.214;2023-08-30T06:28:43;1.48;;;0.45;;
25247;SDS011;13191;47.472;11.214;2023-08-30T06:31:09;2.22;;;0.60;;
25247;SDS011;13191;47.472;11.214;2023-08-30T06:33:35;0.65;;;0.40;;
25247;SDS011;13191;47.472;11.214;2023-08-30T06:36:01;1.25;;;0.50;;
25247;SDS011;13191;47.472;11.214;2023-08-30T06:38:28;1.75;;;0.45;;
25247;SDS011;13191;47.472;11.214;2023-08-30T06:40:54;1.40;;;0.50;;
25247;SDS011;13191;47.472;11.214;2023-08-30T06:43:22;0.95;;;0.40;;
25247;SDS011;13191;47.472;11.214;2023-08-30T06:45:47;0.65;;;0.30;;
25247;SDS011;13191;47.472;11.214;2023-08-30T06:48:13;1.15;;;0.60;;
25247;SDS011;13191;47.472;11.214;2023-08-30T06:50:39;1.00;;;0.50;;
25247;SDS011;13191;47.472;11.214;2023-08-30T06:53:04;1.17;;;0.50;;
25247;SDS011;13191;47.472;11.214;2023-08-30T06:55:30;0.77;;;0.50;;
25247;SDS011;13191;47.472;11.214;2023-08-30T06:57:56;3.10;;;0.50;;
25247;SDS011;13191;47.472;11.214;2023-08-30T07:00:22;0.68;;;0.43;;
25247;SDS011;13191;47.472;11.214;2023-08-30T07:02:47;0.55;;;0.45;;
25247;SDS011;13191;47.472;11.214;2023-08-30T07:05:13;1.30;;;0.60;;
25247;SDS011;13191;47.472;11.214;2023-08-30T07:07:39;4.18;;;0.40;;
25247;SDS011;13191;47.472;11.214;2023-08-30T07:10:05;2.65;;;0.57;;
25247;SDS011;13191;47.472;11.214;2023-08-30T07:12:31;2.88;;;0.70;;
25247;SDS011;13191;47.472;11.214;2023-08-30T07:14:56;1.75;;;0.57;;
25247;SDS011;13191;47.472;11.214;2023-08-30T07:17:22;0.85;;;0.50;;
25247;SDS011;13191;47.472;11.214;2023-08-30T07:19:48;0.82;;;0.43;;
25247;SDS011;13191;47.472;11.214;2023-08-30T07:22:14;1.42;;;0.60;;
25247;SDS011;13191;47.472;11.214;2023-08-30T07:24:43;0.75;;;0.40;;
25247;SDS011;13191;47.472;11.214;2023-08-30T07:27:09;1.33;;;0.60;;
25247;SDS011;13191;47.472;11.214;2023-08-30T07:29:36;1.20;;;0.65;;
25247;SDS011;13191;47.472;11.214;2023-08-30T07:32:01;1.88;;;0.50;;
25247;SDS011;13191;47.472;11.214;2023-08-30T07:34:27;1.20;;;0.60;;
25247;SDS011;13191;47.472;11.214;2023-08-30T07:36:53;1.00;;;0.43;;
25247;SDS011;13191;47.472;11.214;2023-08-30T07:39:21;1.15;;;0.50;;
25247;SDS011;13191;47.472;11.214;2023-08-30T07:41:46;0.80;;;0.50;;
25247;SDS011;13191;47.472;11.214;2023-08-30T07:44:12;0.63;;;0.40;;
25247;SDS011;13191;47.472;11.214;2023-08-30T07:46:37;2.03;;;0.38;;
25247;SDS011;13191;47.472;11.214;2023-08-30T07:49:03;1.70;;;0.68;;
25247;SDS011;13191;47.472;11.214;2023-08-30T07:51:28;1.00;;;0.50;;
25247;SDS011;13191;47.472;11.214;2023-08-30T07:53:54;0.50;;;0.38;;
25247;SDS011;13191;47.472;11.214;2023-08-30T07:56:21;1.58;;;0.65;;
25247;SDS011;13191;47.472;11.214;2023-08-30T07:58:46;1.48;;;0.95;;
25247;SDS011;13191;47.472;11.214;2023-08-30T08:01:12;0.73;;;0.52;;
25247;SDS011;13191;47.472;11.214;2023-08-30T08:03:37;1.85;;;0.63;;
25247;SDS011;13191;47.472;11.214;2023-08-30T08:06:03;1.70;;;1.10;;
25247;SDS011;13191;47.472;11.214;2023-08-30T08:08:29;4.20;;;1.30;;
25247;SDS011;13191;47.472;11.214;2023-08-30T08:10:54;5.68;;;1.83;;
25247;SDS011;13191;47.472;11.214;2023-08-30T08:13:20;4.22;;;1.50;;
25247;SDS011;13191;47.472;11.214;2023-08-30T08:15:45;2.72;;;1.70;;
25247;SDS011;13191;47.472;11.214;2023-08-30T08:18:11;3.38;;;1.65;;
25247;SDS011;13191;47.472;11.214;2023-08-30T08:20:37;3.15;;;1.50;;
25247;SDS011;13191;47.472;11.214;2023-08-30T08:23:04;4.28;;;2.40;;
25247;SDS011;13191;47.472;11.214;2023-08-30T08:25:30;4.30;;;2.13;;
25247;SDS011;13191;47.472;11.214;2023-08-30T08:27:55;6.18;;;2.83;;
25247;SDS011;13191;47.472;11.214;2023-08-30T08:30:21;5.60;;;2.45;;
25247;SDS011;13191;47.472;11.214;2023-08-30T08:32:47;3.35;;;1.63;;
25247;SDS011;13191;47.472;11.214;2023-08-30T08:35:13;4.88;;;2.53;;
25247;SDS011;13191;47.472;11.214;2023-08-30T08:37:39;3.88;;;2.13;;
25247;SDS011;13191;47.472;11.214;2023-08-30T08:40:05;7.80;;;2.53;;
25247;SDS011;13191;47.472;11.214;2023-08-30T08:42:33;7.28;;;3.40;;
25247;SDS011;13191;47.472;11.214;2023-08-30T08:45:00;6.90;;;3.78;;
25247;SDS011;13191;47.472;11.214;2023-08-30T08:47:27;11.63;;;5.20;;
25247;SDS011;13191;47.472;11.214;2023-08-30T08:49:55;10.52;;;5.03;;
25247;SDS011;13191;47.472;11.214;2023-08-30T08:52:21;11.73;;;4.85;;
25247;SDS011;13191;47.472;11.214;2023-08-30T08:54:48;13.98;;;6.15;;
25247;SDS011;13191;47.472;11.214;2023-08-30T08:57:14;11.82;;;6.63;;
25247;SDS011;13191;47.472;11.214;2023-08-30T08:59:40;12.75;;;6.63;;
25247;SDS011;13191;47.472;11.214;2023-08-30T09:02:06;13.65;;;6.45;;
25247;SDS011;13191;47.472;11.214;2023-08-30T09:04:35;17.95;;;7.22;;
25247;SDS011;13191;47.472;11.214;2023-08-30T09:07:01;10.75;;;4.57;;
25247;SDS011;13191;47.472;11.214;2023-08-30T09:09:26;9.63;;;2.58;;
25247;SDS011;13191;47.472;11.214;2023-08-30T09:11:52;8.18;;;2.35;;
25247;SDS011;13191;47.472;11.214;2023-08-30T09:14:18;7.30;;;2.25;;
25247;SDS011;13191;47.472;11.214;2023-08-30T09:16:57;6.15;;;2.20;;
25247;SDS011;13191;47.472;11.214;2023-08-30T09:19:23;5.18;;;2.80;;
25247;SDS011;13191;47.472;11.214;2023-08-30T09:24:21;4.43;;;2.45;;
25247;SDS011;13191;47.472;11.214;2023-08-30T09:26:48;4.13;;;2.10;;
25247;SDS011;13191;47.472;11.214;2023-08-30T09:29:16;4.72;;;2.00;;
25247;SDS011;13191;47.472;11.214;2023-08-30T09:31:42;5.85;;;1.23;;
25247;SDS011;13191;47.472;11.214;2023-08-30T09:34:08;1.90;;;0.88;;
25247;SDS011;13191;47.472;11.214;2023-08-30T09:36:36;4.35;;;1.73;;
25247;SDS011;13191;47.472;11.214;2023-08-30T09:39:10;3.33;;;1.55;;
25247;SDS011;13191;47.472;11.214;2023-08-30T09:41:41;4.68;;;1.90;;
25247;SDS011;13191;47.472;11.214;2023-08-30T09:44:11;2.50;;;1.30;;
25247;SDS011;13191;47.472;11.214;2023-08-30T09:46:45;5.35;;;2.20;;
25247;SDS011;13191;47.472;11.214;2023-08-30T09:49:18;3.22;;;1.50;;
25247;SDS011;13191;47.472;11.214;2023-08-30T09:51:48;4.85;;;1.25;;
25247;SDS011;13191;47.472;11.214;2023-08-30T09:54:23;1.90;;;1.05;;
25247;SDS011;13191;47.472;11.214;2023-08-30T09:56:53;2.10;;;1.10;;
25247;SDS011;13191;47.472;11.214;2023-08-30T09:59:23;2.35;;;1.00;;
25247;SDS011;13191;47.472;11.214;2023-08-30T10:01:49;1.45;;;0.90;;
25247;SDS011;13191;47.472;11.214;2023-08-30T10:04:17;2.22;;;0.90;;
25247;SDS011;13191;47.472;11.214;2023-08-30T10:06:44;1.80;;;0.80;;
25247;SDS011;13191;47.472;11.214;2023-08-30T10:09:11;1.25;;;0.70;;
25247;SDS011;13191;47.472;11.214;2023-08-30T10:11:38;1.90;;;0.80;;
25247;SDS011;13191;47.472;11.214;2023-08-30T10:14:04;2.45;;;1.08;;
25247;SDS011;13191;47.472;11.214;2023-08-30T10:16:42;5.70;;;1.00;;
25247;SDS011;13191;47.472;11.214;2023-08-30T10:19:14;1.17;;;0.75;;
25247;SDS011;13191;47.472;11.214;2023-08-30T10:21:40;2.03;;;0.90;;
25247;SDS011;13191;47.472;11.214;2023-08-30T10:24:09;1.77;;;0.80;;
25247;SDS011;13191;47.472;11.214;2023-08-30T10:26:36;1.50;;;0.65;;
25247;SDS011;13191;47.472;11.214;2023-08-30T10:29:04;0.95;;;0.50;;
25247;SDS011;13191;47.472;11.214;2023-08-30T10:31:32;1.27;;;0.70;;
25247;SDS011;13191;47.472;11.214;2023-08-30T10:33:57;0.95;;;0.55;;
25247;SDS011;13191;47.472;11.214;2023-08-30T10:36:23;1.58;;;0.77;;
25247;SDS011;13191;47.472;11.214;2023-08-30T10:38:50;1.15;;;0.60;;
25247;SDS011;13191;47.472;11.214;2023-08-30T10:41:35;2.00;;;0.60;;
25247;SDS011;13191;47.472;11.214;2023-08-30T10:44:01;1.23;;;0.52;;
25247;SDS011;13191;47.472;11.214;2023-08-30T10:46:31;1.75;;;0.90;;
25247;SDS011;13191;47.472;11.214;2023-08-30T10:49:13;2.03;;;0.98;;
25247;SDS011;13191;47.472;11.214;2023-08-30T10:51:39;1.05;;;0.50;;
25247;SDS011;13191;47.472;11.214;2023-08-30T10:54:16;1.17;;;0.57;;
25247;SDS011;13191;47.472;11.214;2023-08-30T10:56:45;1.88;;;0.60;;
25247;SDS011;13191;47.472;11.214;2023-08-30T10:59:23;0.70;;;0.40;;
25247;SDS011;13191;47.472;11.214;2023-08-30T11:01:50;0.68;;;0.40;;
25247;SDS011;13191;47.472;11.214;2023-08-30T11:04:17;1.60;;;0.60;;
25247;SDS011;13191;47.472;11.214;2023-08-30T11:06:47;1.33;;;0.40;;
25247;SDS011;13191;47.472;11.214;2023-08-30T11:09:14;1.47;;;0.40;;
25247;SDS011;13191;47.472;11.214;2023-08-30T11:11:42;0.52;;;0.20;;
25247;SDS011;13191;47.472;11.214;2023-08-30T11:14:09;1.77;;;0.60;;
25247;SDS011;13191;47.472;11.214;2023-08-30T11:16:35;0.68;;;0.40;;
25247;SDS011;13191;47.472;11.214;2023-08-30T11:19:01;1.48;;;0.50;;
25247;SDS011;13191;47.472;11.214;2023-08-30T11:21:32;0.88;;;0.50;;
25247;SDS011;13191;47.472;11.214;2023-08-30T11:23:59;1.48;;;0.85;;
25247;SDS011;13191;47.472;11.214;2023-08-30T11:26:24;1.17;;;0.50;;
25247;SDS011;13191;47.472;11.214;2023-08-30T11:28:50;1.48;;;0.63;;
25247;SDS011;13191;47.472;11.214;2023-08-30T11:31:21;0.65;;;0.40;;
25247;SDS011;13191;47.472;11.214;2023-08-30T11:33:54;1.23;;;0.45;;
25247;SDS011;13191;47.472;11.214;2023-08-30T11:36:25;1.17;;;0.68;;
25247;SDS011;13191;47.472;11.214;2023-08-30T11:38:52;0.60;;;0.40;;
25247;SDS011;13191;47.472;11.214;2023-08-30T11:41:22;1.02;;;0.70;;
25247;SDS011;13191;47.472;11.214;2023-08-30T11:43:48;1.45;;;0.60;;
25247;SDS011;13191;47.472;11.214;2023-08-30T11:46:14;2.42;;;0.68;;
25247;SDS011;13191;47.472;11.214;2023-08-30T11:48:41;1.23;;;0.60;;
25247;SDS011;13191;47.472;11.214;2023-08-30T11:51:07;1.25;;;0.40;;
25247;SDS011;13191;47.472;11.214;2023-08-30T11:53:34;1.08;;;0.45;;
25247;SDS011;13191;47.472;11.214;2023-08-30T11:56:00;0.95;;;0.55;;
25247;SDS011;13191;47.472;11.214;2023-08-30T11:58:26;2.67;;;0.50;;
25247;SDS011;13191;47.472;11.214;2023-08-30T12:00:52;1.00;;;0.50;;
25247;SDS011;13191;47.472;11.214;2023-08-30T12:03:22;0.93;;;0.50;;
25247;SDS011;13191;47.472;11.214;2023-08-30T12:05:48;2.38;;;1.20;;
25247;SDS011;13191;47.472;11.214;2023-08-30T12:08:18;0.82;;;0.38;;
25247;SDS011;13191;47.472;11.214;2023-08-30T12:10:52;1.35;;;0.65;;
25247;SDS011;13191;47.472;11.214;2023-08-30T12:15:55;1.73;;;0.68;;
25247;SDS011;13191;47.472;11.214;2023-08-30T12:18:22;1.08;;;0.68;;
25247;SDS011;13191;47.472;11.214;2023-08-30T12:20:55;0.68;;;0.45;;
25247;SDS011;13191;47.472;11.214;2023-08-30T12:23:29;3.08;;;0.52;;
25247;SDS011;13191;47.472;11.214;2023-08-30T12:28:23;0.80;;;0.40;;
25247;SDS011;13191;47.472;11.214;2023-08-30T12:30:50;1.92;;;0.70;;
25247;SDS011;13191;47.472;11.214;2023-08-30T12:33:16;1.08;;;0.57;;
25247;SDS011;13191;47.472;11.214;2023-08-30T12:35:42;0.88;;;0.40;;
25247;SDS011;13191;47.472;11.214;2023-08-30T12:38:07;3.80;;;0.75;;
25247;SDS011;13191;47.472;11.214;2023-08-30T12:40:35;1.10;;;0.50;;
25247;SDS011;13191;47.472;11.214;2023-08-30T12:43:01;1.25;;;0.50;;
25247;SDS011;13191;47.472;11.214;2023-08-30T12:45:26;0.90;;;0.50;;
25247;SDS011;13191;47.472;11.214;2023-08-30T12:47:52;3.22;;;0.73;;
25247;SDS011;13191;47.472;11.214;2023-08-30T12:50:17;1.73;;;0.90;;
25247;SDS011;13191;47.472;11.214;2023-08-30T12:52:43;2.53;;;1.10;;
25247;SDS011;13191;47.472;11.214;2023-08-30T12:55:08;3.33;;;1.50;;
25247;SDS011;13191;47.472;11.214;2023-08-30T12:57:34;3.00;;;1.13;;
25247;SDS011;13191;47.472;11.214;2023-08-30T12:59:59;2.80;;;1.05;;
25247;SDS011;13191;47.472;11.214;2023-08-30T13:02:25;3.35;;;1.02;;
25247;SDS011;13191;47.472;11.214;2023-08-30T13:04:50;3.88;;;1.33;;
25247;SDS011;13191;47.472;11.214;2023-08-30T13:07:16;3.35;;;1.35;;
25247;SDS011;13191;47.472;11.214;2023-08-30T13:09:42;3.80;;;1.90;;
25247;SDS011;13191;47.472;11.214;2023-08-30T13:12:08;3.85;;;1.70;;
25247;SDS011;13191;47.472;11.214;2023-08-30T13:14:33;3.42;;;1.70;;
25247;SDS011;13191;47.472;11.214;2023-08-30T13:16:59;2.70;;;1.40;;
25247;SDS011;13191;47.472;11.214;2023-08-30T13:19:24;2.85;;;1.02;;
25247;SDS011;13191;47.472;11.214;2023-08-30T13:21:50;2.50;;;0.90;;
25247;SDS011;13191;47.472;11.214;2023-08-30T13:24:16;2.20;;;0.90;;
25247;SDS011;13191;47.472;11.214;2023-08-30T13:26:41;2.03;;;1.02;;
25247;SDS011;13191;47.472;11.214;2023-08-30T13:29:07;3.03;;;1.35;;
25247;SDS011;13191;47.472;11.214;2023-08-30T13:31:32;2.83;;;1.30;;
25247;SDS011;13191;47.472;11.214;2023-08-30T13:33:58;2.83;;;1.17;;
25247;SDS011;13191;47.472;11.214;2023-08-30T13:36:24;3.47;;;1.48;;
25247;SDS011;13191;47.472;11.214;2023-08-30T13:38:49;3.53;;;1.20;;
25247;SDS011;13191;47.472;11.214;2023-08-30T13:41:15;3.20;;;0.75;;
25247;SDS011;13191;47.472;11.214;2023-08-30T13:43:40;1.88;;;0.70;;
25247;SDS011;13191;47.472;11.214;2023-08-30T13:46:06;2.53;;;0.82;;
25247;SDS011;13191;47.472;11.214;2023-08-30T13:48:31;2.63;;;0.57;;
25247;SDS011;13191;47.472;11.214;2023-08-30T13:50:57;2.03;;;0.80;;
25247;SDS011;13191;47.472;11.214;2023-08-30T13:53:23;1.15;;;0.75;;
25247;SDS011;13191;47.472;11.214;2023-08-30T13:55:49;2.60;;;0.70;;
25247;SDS011;13191;47.472;11.214;2023-08-30T13:58:15;1.77;;;0.82;;
25247;SDS011;13191;47.472;11.214;2023-08-30T14:00:41;2.63;;;0.73;;
25247;SDS011;13191;47.472;11.214;2023-08-30T14:03:07;1.45;;;0.63;;
25247;SDS011;13191;47.472;11.214;2023-08-30T14:05:33;1.27;;;0.60;;
25247;SDS011;13191;47.472;11.214;2023-08-30T14:07:59;2.13;;;0.75;;
25247;SDS011;13191;47.472;11.214;2023-08-30T14:10:24;1.88;;;0.65;;
25247;SDS011;13191;47.472;11.214;2023-08-30T14:12:50;0.95;;;0.50;;
25247;SDS011;13191;47.472;11.214;2023-08-30T14:15:15;6.15;;;0.65;;
25247;SDS011;13191;47.472;11.214;2023-08-30T14:17:42;2.00;;;1.00;;
25247;SDS011;13191;47.472;11.214;2023-08-30T14:20:08;1.17;;;0.60;;
25247;SDS011;13191;47.472;11.214;2023-08-30T14:22:34;1.00;;;0.40;;
25247;SDS011;13191;47.472;11.214;2023-08-30T14:25:01;1.30;;;0.70;;
25247;SDS011;13191;47.472;11.214;2023-08-30T14:27:27;0.90;;;0.40;;
25247;SDS011;13191;47.472;11.214;2023-08-30T14:29:53;1.10;;;0.57;;
25247;SDS011;13191;47.472;11.214;2023-08-30T14:32:19;1.08;;;0.60;;
25247;SDS011;13191;47.472;11.214;2023-08-30T14:34:44;0.43;;;0.30;;
25247;SDS011;13191;47.472;11.214;2023-08-30T14:37:10;1.20;;;0.45;;
25247;SDS011;13191;47.472;11.214;2023-08-30T14:39:36;0.85;;;0.50;;
25247;SDS011;13191;47.472;11.214;2023-08-30T14:42:01;0.98;;;0.43;;
25247;SDS011;13191;47.472;11.214;2023-08-30T14:44:27;3.50;;;0.50;;
25247;SDS011;13191;47.472;11.214;2023-08-30T14:46:53;0.50;;;0.32;;